Time;durP1;ratioP1;P1;durP2;ratioP2;P2;SDS_P1;SDS_P2;PMS_P1;PMS_P2;Temp;Humidity;BMP_temperature;BMP_pressure;BME280_temperature;BME280_humidity;BME280_pressure;Samples;Min_cycle;Max_cycle;Signal;HPM_P1;HPM_P2
2022/11/15 00:01:14;;;;;;;1.10;0.30;;;23.10;69.10;;;;;;5094570;28;20377;-83
2022/11/15 00:03:41;;;;;;;1.20;0.40;;;23.20;68.90;;;;;;5094206;28;20372;-80
2022/11/15 00:06:09;;;;;;;1.00;0.20;;;23.60;66.10;;;;;;5095414;28;20412;-84
2022/11/15 00:08:35;;;;;;;0.43;0.30;;;24.00;65.70;;;;;;5094038;28;20410;-81
2022/11/15 00:11:03;;;;;;;0.82;0.20;;;24.40;65.40;;;;;;5093983;28;20365;-86
2022/11/15 00:13:31;;;;;;;1.40;0.30;;;24.90;64.70;;;;;;5092650;28;20387;-81
2022/11/15 00:16:00;;;;;;;1.00;0.40;;;25.20;63.10;;;;;;5094000;28;20400;-82
2022/11/15 00:18:28;;;;;;;6.75;0.70;;;25.00;64.30;;;;;;5093860;28;20383;-84
2022/11/15 00:20:56;;;;;;;5.07;0.60;;;25.50;64.20;;;;;;5092333;28;20853;-82
2022/11/15 00:23:23;;;;;;;3.95;0.70;;;25.60;63.00;;;;;;5093637;28;20726;-85
2022/11/15 00:25:57;;;;;;;1.63;0.50;;;25.50;62.20;;;;;;5093639;28;20380;-86
2022/11/15 00:28:24;;;;;;;1.35;0.22;;;25.30;62.80;;;;;;5093375;28;20397;-86
2022/11/15 00:30:51;;;;;;;0.60;0.30;;;24.80;63.30;;;;;;5093869;28;20907;-82
2022/11/15 00:33:18;;;;;;;0.73;0.30;;;24.60;62.80;;;;;;5109096;28;20714;-84
2022/11/15 00:35:45;;;;;;;0.65;0.40;;;24.20;63.70;;;;;;5093476;28;20373;-83
2022/11/15 00:38:12;;;;;;;0.90;0.35;;;23.90;64.80;;;;;;5093325;28;20379;-81
2022/11/15 00:40:39;;;;;;;0.63;0.30;;;23.70;64.30;;;;;;5075305;28;20727;-83
2022/11/15 00:43:06;;;;;;;3.10;1.40;;;23.60;63.70;;;;;;5109078;28;20732;-81
2022/11/15 00:45:34;;;;;;;2.37;1.53;;;23.40;64.70;;;;;;5093208;28;20905;-84
2022/11/15 00:48:00;;;;;;;1.15;0.77;;;23.50;65.00;;;;;;5092876;28;20414;-81
2022/11/15 00:50:27;;;;;;;1.53;0.53;;;23.80;65.00;;;;;;5093069;28;20379;-84
2022/11/15 00:52:54;;;;;;;0.30;0.20;;;23.90;66.10;;;;;;5093068;28;20377;-82
2022/11/15 00:55:21;;;;;;;0.70;0.38;;;24.10;64.70;;;;;;5092996;28;20369;-81
2022/11/15 00:57:48;;;;;;;0.57;0.20;;;24.30;63.50;;;;;;5093086;28;20705;-82
2022/11/15 01:00:16;;;;;;;0.70;0.30;;;24.50;61.70;;;;;;5092970;28;20414;-81
2022/11/15 01:02:43;;;;;;;1.90;0.32;;;24.40;63.20;;;;;;5093395;28;20774;-83
2022/11/15 01:05:10;;;;;;;1.00;0.30;;;24.40;63.90;;;;;;5092957;28;20368;-83
2022/11/15 01:07:37;;;;;;;0.43;0.30;;;24.30;64.30;;;;;;5093028;28;20408;-85
2022/11/15 01:10:05;;;;;;;5.07;0.90;;;24.20;63.10;;;;;;5092062;28;20377;-83
2022/11/15 01:12:32;;;;;;;0.55;0.30;;;24.20;62.20;;;;;;5092747;28;20364;-83
2022/11/15 01:14:59;;;;;;;2.20;0.47;;;23.90;63.20;;;;;;5092699;28;20891;-84
2022/11/15 01:17:26;;;;;;;1.05;0.38;;;23.80;62.80;;;;;;5092681;28;20416;-81
2022/11/15 01:19:53;;;;;;;0.40;0.30;;;23.80;64.00;;;;;;5092634;28;20400;-81
2022/11/15 01:22:21;;;;;;;1.52;0.40;;;23.90;63.50;;;;;;5092662;28;20399;-85
2022/11/15 01:24:49;;;;;;;1.20;0.37;;;23.90;64.30;;;;;;5092711;28;20368;-81
2022/11/15 01:27:17;;;;;;;1.27;0.50;;;24.20;64.10;;;;;;5092376;28;20388;-82
2022/11/15 01:29:47;;;;;;;0.50;0.40;;;24.30;63.90;;;;;;5091704;28;20445;-82
2022/11/15 01:32:14;;;;;;;1.17;0.30;;;24.40;62.30;;;;;;5092535;28;20380;-83
2022/11/15 01:34:41;;;;;;;0.70;0.40;;;24.60;61.30;;;;;;5092504;28;20783;-84
2022/11/15 01:37:08;;;;;;;0.47;0.40;;;24.60;62.00;;;;;;5091289;28;20745;-84
2022/11/15 01:39:35;;;;;;;0.50;0.30;;;24.60;61.10;;;;;;5092482;28;20824;-83
2022/11/15 01:42:02;;;;;;;3.15;1.58;;;24.50;60.50;;;;;;5092535;28;20384;-83
2022/11/15 01:44:35;;;;;;;0.65;0.32;;;24.50;62.00;;;;;;5092512;28;20844;-85
2022/11/15 01:47:09;;;;;;;1.15;0.40;;;24.80;60.10;;;;;;5093141;28;20422;-82
2022/11/15 01:49:41;;;;;;;1.52;0.40;;;25.00;60.20;;;;;;5092472;28;20396;-83
2022/11/15 01:52:12;;;;;;;1.20;0.50;;;25.10;60.10;;;;;;5092580;28;20388;-82
2022/11/15 01:54:40;;;;;;;0.82;0.40;;;25.40;59.60;;;;;;5092348;28;20371;-81
2022/11/15 01:57:10;;;;;;;1.00;0.30;;;25.90;58.20;;;;;;5092389;28;20433;-81
2022/11/15 01:59:41;;;;;;;0.90;0.40;;;26.50;59.10;;;;;;5092210;28;20418;-84
2022/11/15 02:02:08;;;;;;;1.50;0.40;;;26.80;58.60;;;;;;5093292;28;20411;-84
2022/11/15 02:04:47;;;;;;;1.65;0.60;;;26.80;55.50;;;;;;5090920;28;20414;-83
2022/11/15 02:07:17;;;;;;;5.35;0.68;;;26.80;56.30;;;;;;5090841;28;20437;-82
2022/11/15 02:09:46;;;;;;;0.30;0.30;;;26.60;56.00;;;;;;5092397;28;20428;-80
2022/11/15 02:12:18;;;;;;;1.85;0.40;;;26.50;55.90;;;;;;5092036;28;20364;-80
2022/11/15 02:14:50;;;;;;;1.30;0.40;;;26.30;55.90;;;;;;5091967;28;20728;-84
2022/11/15 02:17:39;;;;;;;1.58;1.42;;;26.00;56.60;;;;;;5092242;28;20390;-84
2022/11/15 02:20:38;;;;;;;3.13;1.23;;;25.70;56.80;;;;;;5092398;28;20361;-82
2022/11/15 02:23:20;;;;;;;1.45;0.40;;;26.60;60.10;;;;;;5095887;28;20540;-84
2022/11/15 02:26:02;;;;;;;1.13;1.02;;;28.40;53.60;;;;;;5096167;28;20371;-80
2022/11/15 02:28:50;;;;;;;1.33;1.23;;;29.10;52.70;;;;;;5096406;28;20906;-82
2022/11/15 02:31:28;;;;;;;2.00;0.50;;;28.50;51.60;;;;;;5096182;28;20367;-81
2022/11/15 02:34:29;;;;;;;1.05;0.35;;;28.10;53.10;;;;;;5096194;28;20717;-81
2022/11/15 02:37:29;;;;;;;1.90;0.80;;;28.30;53.90;;;;;;5095722;28;20860;-83
2022/11/15 02:40:30;;;;;;;1.67;0.47;;;28.20;51.80;;;;;;5096025;28;20357;-81
2022/11/15 02:45:56;;;;;;;1.17;0.98;;;29.80;50.20;;;;;;5096174;28;20440;-82
2022/11/15 02:48:25;;;;;;;1.15;0.30;;;30.50;47.70;;;;;;5095752;28;20870;-82
2022/11/15 02:50:53;;;;;;;0.55;0.30;;;30.20;48.80;;;;;;5095345;28;20381;-84
2022/11/15 02:53:25;;;;;;;0.55;0.40;;;30.00;49.80;;;;;;5095410;28;20382;-81
2022/11/15 02:55:55;;;;;;;0.40;0.20;;;29.70;47.30;;;;;;5096231;28;20369;-82
2022/11/15 02:58:39;;;;;;;0.73;0.30;;;29.60;47.70;;;;;;5095289;28;20455;-81
2022/11/15 03:01:15;;;;;;;0.80;0.30;;;29.80;46.10;;;;;;5095718;28;20777;-82
2022/11/15 03:04:22;;;;;;;1.35;0.30;;;29.60;47.50;;;;;;5095700;28;20824;-86
2022/11/15 03:07:21;;;;;;;0.40;0.20;;;30.30;48.30;;;;;;5094718;28;20823;-82
2022/11/15 03:09:58;;;;;;;0.40;0.30;;;31.60;45.70;;;;;;5095060;28;20763;-84
2022/11/15 03:12:46;;;;;;;0.30;0.20;;;32.50;45.40;;;;;;5095779;28;20387;-84
2022/11/15 03:15:40;;;;;;;2.15;0.40;;;32.60;43.60;;;;;;5095102;28;20377;-85
2022/11/15 03:18:30;;;;;;;1.67;0.40;;;33.00;43.60;;;;;;5095237;28;20360;-81
2022/11/15 03:21:00;;;;;;;0.35;0.30;;;32.30;43.40;;;;;;5094813;28;20876;-81
2022/11/15 03:23:30;;;;;;;0.75;0.30;;;32.20;44.00;;;;;;5095023;28;20404;-84
2022/11/15 03:25:59;;;;;;;2.00;0.30;;;32.80;43.50;;;;;;5094648;28;20379;-83
2022/11/15 03:28:59;;;;;;;1.17;0.40;;;31.80;43.40;;;;;;5095067;28;20415;-82
2022/11/15 03:31:47;;;;;;;0.30;0.30;;;30.30;44.00;;;;;;5052761;28;20379;-84
2022/11/15 03:34:40;;;;;;;1.98;0.38;;;28.80;46.80;;;;;;5051804;28;20376;-82
2022/11/15 03:37:09;;;;;;;0.32;0.30;;;27.60;48.10;;;;;;5052733;28;20364;-84
2022/11/15 03:39:36;;;;;;;1.03;0.20;;;26.80;49.70;;;;;;5061270;28;20443;-81
2022/11/15 03:42:22;;;;;;;2.38;0.38;;;26.20;51.70;;;;;;5069828;28;20448;-81
2022/11/15 03:45:15;;;;;;;1.40;0.40;;;25.80;53.20;;;;;;5064065;28;20356;-80
2022/11/15 03:47:55;;;;;;;1.07;0.37;;;25.70;53.80;;;;;;5067609;28;20448;-80
2022/11/15 03:50:23;;;;;;;0.73;0.30;;;25.50;54.80;;;;;;5071039;28;20445;-80
2022/11/15 03:52:51;;;;;;;1.45;0.45;;;25.30;54.30;;;;;;5066761;28;20368;-85
2022/11/15 03:55:20;;;;;;;1.63;0.30;;;25.80;54.10;;;;;;5041526;28;20918;-84
2022/11/15 03:57:49;;;;;;;1.42;0.30;;;27.50;51.70;;;;;;5053137;28;20384;-83
2022/11/15 04:00:16;;;;;;;1.15;0.40;;;27.60;50.90;;;;;;5052883;28;20412;-85
2022/11/15 04:02:43;;;;;;;3.05;0.70;;;27.50;51.40;;;;;;5052053;28;20411;-81
2022/11/15 04:05:10;;;;;;;1.05;0.50;;;27.30;51.00;;;;;;5052178;28;20380;-80
2022/11/15 04:07:37;;;;;;;1.00;0.40;;;27.40;50.30;;;;;;5070127;28;20399;-82
2022/11/15 04:10:05;;;;;;;0.73;0.30;;;28.30;50.20;;;;;;5094387;28;20416;-83
2022/11/15 04:12:42;;;;;;;0.40;0.30;;;29.20;49.40;;;;;;5094132;28;20378;-85
2022/11/15 04:15:11;;;;;;;1.00;0.30;;;29.50;46.50;;;;;;5093991;28;20389;-85
2022/11/15 04:17:45;;;;;;;0.85;0.30;;;29.00;45.90;;;;;;5094113;28;20724;-85
2022/11/15 04:25:53;;;;;;;0.60;0.30;;;26.70;48.40;;;;;;5094272;28;20355;-82
2022/11/15 04:28:20;;;;;;;0.60;0.40;;;26.30;49.60;;;;;;5093706;28;20388;-82
2022/11/15 04:30:47;;;;;;;3.47;0.50;;;25.90;50.40;;;;;;5093605;28;20372;-86
2022/11/15 04:33:15;;;;;;;4.20;0.40;;;25.90;50.10;;;;;;5093606;28;20452;-81
2022/11/15 04:35:43;;;;;;;9.35;0.95;;;26.00;50.10;;;;;;5093536;28;20446;-85
2022/11/15 04:38:11;;;;;;;9.43;1.00;;;26.20;50.30;;;;;;5093401;28;20365;-82
2022/11/15 04:40:38;;;;;;;3.00;0.65;;;26.40;50.00;;;;;;5093765;28;20373;-85
2022/11/15 04:43:05;;;;;;;1.75;0.40;;;27.40;50.00;;;;;;5093402;28;20369;-83
2022/11/15 04:45:32;;;;;;;1.40;0.30;;;28.40;47.10;;;;;;5092363;28;20912;-82
2022/11/15 04:47:59;;;;;;;1.30;0.60;;;28.60;44.20;;;;;;5093099;28;20396;-84
2022/11/15 04:50:26;;;;;;;0.77;0.40;;;27.90;43.70;;;;;;5093167;28;20845;-86
2022/11/15 04:52:54;;;;;;;0.82;0.30;;;27.40;44.90;;;;;;5094144;28;20742;-84
2022/11/15 04:55:21;;;;;;;1.50;0.40;;;27.50;45.10;;;;;;5093190;28;20382;-83
2022/11/15 04:57:57;;;;;;;0.60;0.30;;;27.30;44.30;;;;;;5092948;28;20402;-84
2022/11/15 05:00:24;;;;;;;1.38;0.40;;;27.20;44.60;;;;;;5093763;28;20767;-84
2022/11/15 05:05:37;;;;;;;0.73;0.43;;;27.70;44.30;;;;;;5093261;28;20375;-81
2022/11/15 05:08:04;;;;;;;0.98;0.40;;;27.40;45.20;;;;;;5092882;28;20399;-83
2022/11/15 05:10:31;;;;;;;1.03;0.40;;;27.00;45.60;;;;;;5093050;28;20373;-83
2022/11/15 05:12:58;;;;;;;0.70;0.47;;;27.00;45.80;;;;;;5092837;28;21064;-82
2022/11/15 05:15:25;;;;;;;1.23;0.40;;;27.00;45.50;;;;;;5092661;28;20399;-83
2022/11/15 05:17:59;;;;;;;0.93;0.40;;;26.90;45.40;;;;;;5093505;28;20769;-82
2022/11/15 05:20:26;;;;;;;1.07;0.50;;;26.50;46.60;;;;;;5092640;28;20372;-84
2022/11/15 05:22:55;;;;;;;2.15;0.45;;;27.00;45.70;;;;;;5092576;28;20379;-85
2022/11/15 05:25:23;;;;;;;0.88;0.50;;;27.60;44.90;;;;;;5092629;28;20368;-86
2022/11/15 05:27:50;;;;;;;0.95;0.43;;;28.30;44.10;;;;;;5092409;28;20392;-84
2022/11/15 05:30:17;;;;;;;0.77;0.30;;;28.00;43.60;;;;;;5092527;28;20392;-81
2022/11/15 05:32:45;;;;;;;1.35;0.38;;;27.40;45.00;;;;;;5092534;28;20377;-81
2022/11/15 05:35:32;;;;;;;1.37;0.40;;;27.10;44.20;;;;;;5092575;28;20372;-83
2022/11/15 05:37:58;;;;;;;1.10;0.50;;;27.70;43.90;;;;;;5093233;28;20421;-83
2022/11/15 05:40:27;;;;;;;2.35;0.40;;;28.70;44.20;;;;;;5092442;28;20407;-83
2022/11/15 05:42:54;;;;;;;2.25;0.50;;;28.90;43.90;;;;;;5092334;28;20728;-81
2022/11/15 05:45:21;;;;;;;0.73;0.50;;;28.50;44.30;;;;;;5092339;28;20975;-83
2022/11/15 05:47:49;;;;;;;1.58;0.50;;;28.60;43.50;;;;;;5092373;28;20731;-83
2022/11/15 05:50:18;;;;;;;0.70;0.30;;;28.80;42.90;;;;;;5092388;28;20380;-82
2022/11/15 05:52:47;;;;;;;0.40;0.30;;;28.30;42.10;;;;;;5092390;28;20400;-84
2022/11/15 05:55:15;;;;;;;2.03;0.50;;;28.30;43.10;;;;;;5092278;28;20729;-85
2022/11/15 05:57:42;;;;;;;7.65;0.60;;;28.20;42.30;;;;;;5095959;28;20924;-81
2022/11/15 06:00:10;;;;;;;1.80;0.50;;;28.00;42.30;;;;;;5096540;28;20372;-90
2022/11/15 06:02:38;;;;;;;1.92;0.43;;;28.30;42.50;;;;;;5095630;28;20396;-82
2022/11/15 06:05:05;;;;;;;0.80;0.40;;;27.90;42.20;;;;;;5096540;28;20377;-85
2022/11/15 06:07:32;;;;;;;1.20;0.45;;;27.80;43.10;;;;;;5096884;28;20360;-82
2022/11/15 06:09:59;;;;;;;1.90;0.50;;;27.80;42.90;;;;;;5096336;28;20400;-85
2022/11/15 06:12:27;;;;;;;1.02;0.50;;;28.10;43.00;;;;;;5096430;28;20450;-85
2022/11/15 06:14:54;;;;;;;0.90;0.50;;;28.00;42.70;;;;;;5098357;28;20380;-86
2022/11/15 06:17:21;;;;;;;2.03;0.60;;;27.90;42.60;;;;;;5094996;28;20831;-83
2022/11/15 06:19:48;;;;;;;1.98;0.52;;;27.80;43.80;;;;;;5094245;28;20391;-84
2022/11/15 06:22:15;;;;;;;1.30;0.60;;;27.90;42.60;;;;;;5094569;28;20430;-85
2022/11/15 06:24:43;;;;;;;1.10;0.52;;;28.00;42.60;;;;;;5093936;28;20895;-86
2022/11/15 06:27:11;;;;;;;2.67;0.50;;;27.80;41.30;;;;;;5094058;28;20485;-87
2022/11/15 06:29:38;;;;;;;0.70;0.40;;;27.50;41.90;;;;;;5093864;28;20411;-84
2022/11/15 06:32:05;;;;;;;1.90;0.50;;;27.40;41.30;;;;;;5094166;28;20376;-82
2022/11/15 06:34:32;;;;;;;1.10;0.45;;;27.40;42.30;;;;;;5094047;28;21014;-83
2022/11/15 06:36:59;;;;;;;1.30;0.50;;;27.50;41.90;;;;;;5093779;28;20844;-81
2022/11/15 06:39:26;;;;;;;1.10;0.45;;;26.90;41.60;;;;;;5093813;28;20391;-81
2022/11/15 06:41:53;;;;;;;1.95;0.50;;;27.00;42.10;;;;;;5093649;28;20693;-82
2022/11/15 06:44:20;;;;;;;0.80;0.47;;;26.70;41.80;;;;;;5093513;28;20770;-85
2022/11/15 06:46:47;;;;;;;1.42;0.57;;;26.80;42.90;;;;;;5093598;28;20403;-83
2022/11/15 06:49:14;;;;;;;1.08;0.40;;;27.00;41.30;;;;;;5093522;28;20883;-84
2022/11/15 06:51:41;;;;;;;1.20;0.50;;;27.10;41.70;;;;;;5093630;28;20932;-86
2022/11/15 06:54:08;;;;;;;1.73;0.50;;;27.40;42.40;;;;;;5093924;28;20728;-80
2022/11/15 06:56:35;;;;;;;1.35;0.45;;;27.60;41.40;;;;;;5095403;28;20918;-81
2022/11/15 06:59:02;;;;;;;1.60;0.40;;;27.20;41.50;;;;;;5095212;28;20403;-83
2022/11/15 07:01:29;;;;;;;0.95;0.40;;;26.90;41.70;;;;;;5095200;28;20376;-83
2022/11/15 07:03:56;;;;;;;1.20;0.50;;;26.40;42.20;;;;;;5095037;28;20441;-83
2022/11/15 07:06:23;;;;;;;2.23;0.50;;;26.20;42.40;;;;;;5095005;28;20376;-84
2022/11/15 07:08:50;;;;;;;1.05;0.50;;;25.90;43.20;;;;;;5094155;28;20392;-84
2022/11/15 07:11:17;;;;;;;1.30;0.60;;;25.80;42.60;;;;;;5094932;28;20422;-84
2022/11/15 07:13:44;;;;;;;1.33;0.50;;;25.90;43.10;;;;;;5095032;28;20376;-81
2022/11/15 07:16:11;;;;;;;1.23;0.50;;;25.60;43.10;;;;;;5095762;28;20365;-83
2022/11/15 07:18:39;;;;;;;1.85;0.52;;;25.60;43.50;;;;;;5093589;28;20848;-82
2022/11/15 07:21:09;;;;;;;1.40;0.45;;;25.70;43.00;;;;;;5094699;28;20380;-83
2022/11/15 07:23:40;;;;;;;0.90;0.40;;;25.70;42.30;;;;;;5094826;28;20832;-80
2022/11/15 07:26:08;;;;;;;1.08;0.60;;;25.30;42.80;;;;;;5096027;28;20377;-81
2022/11/15 07:28:35;;;;;;;1.20;0.50;;;25.30;42.70;;;;;;5095413;28;20414;-81
2022/11/15 07:31:07;;;;;;;2.22;0.60;;;25.10;41.40;;;;;;5094559;28;20868;-82
2022/11/15 07:33:35;;;;;;;1.50;0.50;;;25.20;42.90;;;;;;5094549;28;20429;-80
2022/11/15 07:36:04;;;;;;;0.82;0.50;;;25.40;42.60;;;;;;5094463;28;20405;-82
2022/11/15 07:38:34;;;;;;;0.70;0.40;;;25.30;41.30;;;;;;5094866;28;20383;-81
2022/11/15 07:41:05;;;;;;;0.70;0.40;;;25.00;41.80;;;;;;5094418;28;20793;-82
2022/11/15 07:43:35;;;;;;;2.58;0.45;;;24.90;41.80;;;;;;5095022;28;20795;-84
2022/11/15 07:46:08;;;;;;;1.50;0.60;;;25.00;41.70;;;;;;5094584;28;20697;-81
2022/11/15 07:48:40;;;;;;;1.15;0.60;;;24.90;41.80;;;;;;5094539;28;20482;-82
2022/11/15 07:51:07;;;;;;;1.45;0.50;;;24.60;42.00;;;;;;5094154;28;20365;-82
2022/11/15 07:53:34;;;;;;;1.30;0.50;;;24.50;42.10;;;;;;5094755;28;20717;-84
2022/11/15 07:56:01;;;;;;;1.50;0.50;;;24.20;42.70;;;;;;5094395;28;20377;-81
2022/11/15 07:58:28;;;;;;;1.40;0.50;;;23.80;43.00;;;;;;5094291;28;20413;-83
2022/11/15 08:00:55;;;;;;;1.75;0.60;;;23.60;44.00;;;;;;5094041;28;20376;-81
2022/11/15 08:03:22;;;;;;;1.20;0.50;;;23.20;43.80;;;;;;5094281;28;20422;-84
2022/11/15 08:05:52;;;;;;;1.50;0.60;;;23.00;44.80;;;;;;5093811;28;20380;-83
2022/11/15 08:08:19;;;;;;;1.00;0.70;;;22.80;45.20;;;;;;5094272;28;20949;-82
2022/11/15 08:10:46;;;;;;;17.07;2.00;;;22.70;45.90;;;;;;5093956;28;20732;-82
2022/11/15 08:13:14;;;;;;;16.43;1.57;;;22.60;47.20;;;;;;5093733;28;20369;-82
2022/11/15 08:15:41;;;;;;;5.80;1.20;;;22.60;47.60;;;;;;5093636;28;20731;-83
2022/11/15 08:18:14;;;;;;;2.67;0.70;;;22.50;47.40;;;;;;5094412;28;20927;-82
2022/11/15 08:20:42;;;;;;;3.78;0.65;;;22.30;48.50;;;;;;5093578;28;20389;-82
2022/11/15 08:23:12;;;;;;;16.50;3.20;;;22.10;48.50;;;;;;5093662;28;20364;-81
2022/11/15 08:25:40;;;;;;;13.57;3.15;;;22.00;65.70;;;;;;5093558;28;20372;-84
2022/11/15 08:28:10;;;;;;;15.57;3.60;;;21.80;71.60;;;;;;5093628;28;20468;-81
2022/11/15 08:30:42;;;;;;;18.92;3.80;;;21.60;76.10;;;;;;5093535;28;20502;-83
2022/11/15 08:33:14;;;;;;;14.52;3.33;;;21.40;82.30;;;;;;5093199;28;20371;-84
2022/11/15 08:35:43;;;;;;;17.13;3.80;;;21.20;89.80;;;;;;5093351;28;20381;-82
2022/11/15 08:38:10;;;;;;;14.90;3.53;;;21.00;95.20;;;;;;5093423;28;20870;-82
2022/11/15 08:40:37;;;;;;;15.25;3.60;;;20.80;98.40;;;;;;5093266;28;20384;-82
2022/11/15 08:43:05;;;;;;;16.00;3.50;;;20.70;99.90;;;;;;5091539;28;20377;-84
2022/11/15 08:45:33;;;;;;;13.88;3.33;;;20.50;99.90;;;;;;5093169;28;20372;-85
2022/11/15 08:48:02;;;;;;;15.38;3.50;;;20.30;99.90;;;;;;5093443;28;20419;-82
2022/11/15 08:50:30;;;;;;;16.88;3.65;;;20.20;99.90;;;;;;5093073;28;20721;-80
2022/11/15 08:52:57;;;;;;;16.52;3.25;;;20.10;99.90;;;;;;5093079;28;20425;-83
2022/11/15 08:55:24;;;;;;;12.82;3.33;;;20.10;99.90;;;;;;5093051;28;20376;-81
2022/11/15 08:57:51;;;;;;;14.35;3.42;;;20.00;99.90;;;;;;5093067;28;20373;-81
2022/11/15 09:00:19;;;;;;;18.80;3.63;;;19.90;99.90;;;;;;5092875;28;20456;-80
2022/11/15 09:02:46;;;;;;;13.33;3.20;;;19.90;99.90;;;;;;5092808;28;20364;-81
2022/11/15 09:05:15;;;;;;;15.00;3.23;;;19.90;99.90;;;;;;5092795;28;20376;-81
2022/11/15 09:07:42;;;;;;;12.45;3.55;;;19.80;99.90;;;;;;5093067;28;20368;-80
2022/11/15 09:10:10;;;;;;;15.02;3.55;;;19.70;99.90;;;;;;5093157;28;20537;-80
2022/11/15 09:12:37;;;;;;;11.57;3.22;;;19.60;99.90;;;;;;5093060;28;20369;-80
2022/11/15 09:15:06;;;;;;;13.50;3.38;;;19.60;99.90;;;;;;5092506;28;20376;-85
2022/11/15 09:17:33;;;;;;;11.48;3.20;;;19.50;99.90;;;;;;5092869;28;20844;-82
2022/11/15 09:19:59;;;;;;;13.65;3.40;;;19.50;99.90;;;;;;5092628;28;20379;-82
2022/11/15 09:22:26;;;;;;;15.23;3.50;;;19.40;99.90;;;;;;5090680;28;20373;-82
2022/11/15 09:24:54;;;;;;;15.00;3.20;;;19.30;99.90;;;;;;5090558;28;20376;-82
2022/11/15 09:27:21;;;;;;;14.10;3.13;;;19.30;99.90;;;;;;5073344;28;20400;-81
2022/11/15 09:29:48;;;;;;;15.17;3.10;;;19.30;99.90;;;;;;5073499;28;20504;-86
2022/11/15 09:32:15;;;;;;;13.23;3.13;;;19.40;99.90;;;;;;5089840;28;20372;-84
2022/11/15 09:34:42;;;;;;;11.82;3.00;;;19.30;99.90;;;;;;5090585;28;20420;-83
2022/11/15 09:37:09;;;;;;;13.00;3.10;;;19.40;99.90;;;;;;5090502;28;20368;-83
2022/11/15 09:39:36;;;;;;;9.77;3.00;;;19.40;99.90;;;;;;5090798;28;20444;-86
2022/11/15 09:42:26;;;;;;;12.83;3.40;;;19.50;99.90;;;;;;5090743;28;20368;-84
2022/11/15 09:45:03;;;;;;;13.25;3.35;;;19.50;99.90;;;;;;5090749;28;20380;-83
2022/11/15 09:48:04;;;;;;;11.35;3.30;;;19.50;99.90;;;;;;5091377;28;20836;-82
2022/11/15 09:50:49;;;;;;;16.25;3.20;;;19.50;99.90;;;;;;5073641;28;20463;-83
2022/11/15 09:53:29;;;;;;;13.25;3.10;;;19.40;99.90;;;;;;5091282;28;20396;-84
2022/11/15 09:56:24;;;;;;;15.13;3.33;;;19.30;99.90;;;;;;5090968;28;20377;-83
2022/11/15 09:59:18;;;;;;;17.10;3.50;;;19.30;99.90;;;;;;5090691;28;20772;-83
2022/11/15 10:02:31;;;;;;;14.38;3.50;;;19.20;99.90;;;;;;5093887;28;20447;-82
2022/11/15 10:05:01;;;;;;;13.80;3.10;;;19.30;99.90;;;;;;5093536;28;20372;-82
2022/11/15 10:07:34;;;;;;;13.55;3.05;;;19.30;99.90;;;;;;5094164;28;20766;-84
2022/11/15 10:10:15;;;;;;;10.25;2.83;;;19.30;99.90;;;;;;5094566;28;20408;-83
2022/11/15 10:12:48;;;;;;;16.60;3.28;;;19.30;99.90;;;;;;5095170;28;20433;-82
2022/11/15 10:15:22;;;;;;;15.70;3.20;;;19.40;99.90;;;;;;5093019;28;20886;-82
2022/11/15 10:18:28;;;;;;;12.13;3.05;;;19.20;99.90;;;;;;5093763;28;20860;-82
2022/11/15 10:21:17;;;;;;;14.60;3.30;;;19.10;99.90;;;;;;5093527;28;20383;-84
2022/11/15 10:23:44;;;;;;;11.43;3.00;;;19.10;99.90;;;;;;5093056;28;20360;-83
2022/11/15 10:26:15;;;;;;;13.30;3.30;;;18.90;99.90;;;;;;5092553;28;20380;-83
2022/11/15 10:28:43;;;;;;;16.20;3.50;;;18.80;99.90;;;;;;5094498;28;20446;-83
2022/11/15 10:31:30;;;;;;;17.42;3.58;;;18.80;99.90;;;;;;5093785;28;20376;-81
2022/11/15 10:34:14;;;;;;;13.23;3.30;;;18.60;99.90;;;;;;5097169;28;20739;-84
2022/11/15 10:36:57;;;;;;;14.43;3.53;;;18.60;99.90;;;;;;5096753;28;20369;-83
2022/11/15 10:39:25;;;;;;;19.17;3.90;;;18.60;99.90;;;;;;5100080;28;20375;-80
2022/11/15 10:41:52;;;;;;;21.92;4.20;;;18.50;99.90;;;;;;5108576;28;20425;-82
2022/11/15 10:44:21;;;;;;;21.77;3.95;;;18.40;99.90;;;;;;5113070;28;20361;-82
2022/11/15 10:47:26;;;;;;;17.13;3.70;;;18.30;99.90;;;;;;5113308;28;20400;-82
2022/11/15 10:50:25;;;;;;;17.42;4.03;;;18.60;99.90;;;;;;5054578;28;20399;-82
2022/11/15 10:52:53;;;;;;;14.55;2.97;;;18.00;99.90;;;;;;5069772;28;20376;-80
2022/11/15 10:55:30;;;;;;;6.43;1.80;;;18.00;99.90;;;;;;5069539;28;20689;-81
2022/11/15 10:58:06;;;;;;;7.90;2.10;;;17.90;99.90;;;;;;5069949;28;20471;-83
2022/11/15 11:00:39;;;;;;;6.85;2.50;;;17.90;98.90;;;;;;5072735;28;20432;-81
2022/11/15 11:03:27;;;;;;;9.30;2.70;;;17.80;96.70;;;;;;5064705;28;20442;-82
2022/11/15 11:06:30;;;;;;;6.60;2.40;;;17.80;96.20;;;;;;5069075;28;20376;-82
2022/11/15 11:09:00;;;;;;;11.00;2.45;;;17.70;94.50;;;;;;5062664;28;20408;-81
2022/11/15 11:11:46;;;;;;;7.13;2.08;;;17.60;94.60;;;;;;5055985;28;20376;-81
2022/11/15 11:14:27;;;;;;;6.25;1.52;;;17.60;93.70;;;;;;5054418;28;20379;-82
2022/11/15 11:17:10;;;;;;;4.03;1.30;;;17.60;93.20;;;;;;5054127;28;20375;-81
2022/11/15 11:19:44;;;;;;;3.60;1.30;;;17.50;91.20;;;;;;5053669;28;20376;-81
2022/11/15 11:22:40;;;;;;;3.22;1.27;;;17.40;90.30;;;;;;5053767;28;20364;-81
2022/11/15 11:25:09;;;;;;;6.70;1.20;;;17.30;90.20;;;;;;5053508;28;20368;-81
2022/11/15 11:28:01;;;;;;;5.27;1.27;;;17.20;89.70;;;;;;5088359;28;20786;-81
2022/11/15 11:30:46;;;;;;;3.92;1.30;;;17.10;90.00;;;;;;5095540;28;20427;-80
2022/11/15 11:33:27;;;;;;;7.18;1.58;;;17.00;90.40;;;;;;5095624;28;20415;-82
2022/11/15 11:35:54;;;;;;;6.90;1.40;;;16.80;90.00;;;;;;5095087;28;20373;-82
2022/11/15 11:38:50;;;;;;;4.40;1.15;;;16.80;90.30;;;;;;5095064;28;20392;-81
2022/11/15 11:41:41;;;;;;;5.20;1.20;;;16.80;90.40;;;;;;5093730;28;20844;-82
2022/11/15 11:44:14;;;;;;;3.23;1.10;;;16.70;90.30;;;;;;5094892;28;20763;-82
2022/11/15 11:47:00;;;;;;;4.50;0.97;;;16.70;90.10;;;;;;5093442;28;20405;-81
2022/11/15 11:49:54;;;;;;;2.67;0.95;;;16.60;90.20;;;;;;5094696;28;20408;-82
2022/11/15 11:52:24;;;;;;;5.28;1.30;;;16.60;90.40;;;;;;5094415;28;20712;-81
2022/11/15 11:55:14;;;;;;;4.65;1.70;;;16.60;90.20;;;;;;5094162;28;20383;-82
2022/11/15 11:57:45;;;;;;;5.22;1.90;;;16.50;89.00;;;;;;5094232;28;20376;-82
2022/11/15 12:00:23;;;;;;;9.02;2.20;;;16.50;90.10;;;;;;5094497;28;20368;-81
2022/11/15 12:03:08;;;;;;;7.28;2.00;;;16.40;90.00;;;;;;5094053;28;20372;-81
2022/11/15 12:06:00;;;;;;;4.82;1.70;;;16.40;89.60;;;;;;5094047;28;20843;-81
2022/11/15 12:08:33;;;;;;;7.03;2.00;;;16.30;89.80;;;;;;5094547;28;20419;-82
2022/11/15 12:11:20;;;;;;;5.43;2.00;;;16.30;89.70;;;;;;5094004;28;20368;-82
2022/11/15 12:13:53;;;;;;;6.05;1.60;;;16.20;89.80;;;;;;5094123;28;20392;-81
2022/11/15 12:16:31;;;;;;;7.03;1.60;;;16.10;89.20;;;;;;5093857;28;20373;-83
2022/11/15 12:19:04;;;;;;;9.60;1.60;;;16.10;89.20;;;;;;5093821;28;20372;-80
2022/11/15 12:22:02;;;;;;;5.30;1.52;;;16.10;89.30;;;;;;5094028;28;20872;-81
2022/11/15 12:24:45;;;;;;;5.30;1.42;;;16.10;88.80;;;;;;5051518;28;20425;-81
2022/11/15 12:27:27;;;;;;;4.32;1.70;;;16.00;87.70;;;;;;5051247;28;20514;-81
2022/11/15 12:30:20;;;;;;;4.90;1.30;;;15.90;88.30;;;;;;5051352;28;20400;-81
2022/11/15 12:33:00;;;;;;;4.40;1.33;;;15.80;88.60;;;;;;5034450;28;20380;-81
2022/11/15 12:35:40;;;;;;;7.93;1.70;;;15.70;88.70;;;;;;5051271;28;20376;-81
2022/11/15 12:38:12;;;;;;;6.60;1.73;;;15.60;88.20;;;;;;5051251;28;20490;-81
2022/11/15 12:40:58;;;;;;;5.18;1.60;;;15.60;88.30;;;;;;5051034;28;20797;-81
2022/11/15 12:43:43;;;;;;;8.50;1.60;;;15.50;88.60;;;;;;5051180;28;20387;-80
2022/11/15 12:46:30;;;;;;;6.75;1.75;;;16.40;88.80;;;;;;5050862;28;20372;-81
2022/11/15 12:49:02;;;;;;;6.78;1.70;;;15.50;87.40;;;;;;5051560;28;20461;-81
2022/11/15 12:51:47;;;;;;;5.70;1.40;;;15.40;87.20;;;;;;5050893;28;20376;-81
2022/11/15 12:54:23;;;;;;;5.50;1.80;;;15.40;86.40;;;;;;5051189;28;20376;-81
2022/11/15 12:57:08;;;;;;;4.90;1.50;;;15.40;86.70;;;;;;5051064;28;20422;-81
2022/11/15 13:00:04;;;;;;;4.88;1.30;;;15.30;86.10;;;;;;5050619;28;20743;-82
2022/11/15 13:02:39;;;;;;;7.63;1.30;;;15.30;86.00;;;;;;5092935;28;20387;-79
2022/11/15 13:07:42;;;;;;;9.68;1.30;;;15.20;86.10;;;;;;5092561;28;20373;-82
2022/11/15 13:10:13;;;;;;;5.00;1.20;;;15.20;85.20;;;;;;5092853;28;20482;-81
2022/11/15 13:12:40;;;;;;;4.72;1.30;;;15.10;86.00;;;;;;5091707;28;20411;-81
2022/11/15 13:15:13;;;;;;;6.35;1.30;;;15.10;85.40;;;;;;5092816;28;20379;-81
2022/11/15 13:17:49;;;;;;;6.50;1.30;;;15.00;86.10;;;;;;5092784;28;20368;-80
2022/11/15 13:20:16;;;;;;;6.07;1.40;;;15.00;86.30;;;;;;5092808;28;20365;-80
2022/11/15 13:22:50;;;;;;;7.03;1.33;;;15.00;86.30;;;;;;5092538;28;20795;-81
2022/11/15 13:25:24;;;;;;;5.47;1.30;;;14.90;85.90;;;;;;5092558;28;20369;-82
2022/11/15 13:27:51;;;;;;;5.40;1.17;;;14.90;86.20;;;;;;5092618;28;20380;-82
2022/11/15 13:30:31;;;;;;;4.32;1.15;;;14.80;85.60;;;;;;5092500;28;20403;-80